createdAt,value
2022-12-18T00:02:00.374Z,16.05
2022-12-18T00:06:03.394Z,15.90
2022-12-18T00:10:05.748Z,17.48
2022-12-18T00:14:07.463Z,16.25
2022-12-18T00:18:09.608Z,17.40
2022-12-18T00:22:11.290Z,16.58
2022-12-18T00:26:16.764Z,17.85
2022-12-18T00:30:18.670Z,16.45
2022-12-18T00:34:20.409Z,17.10
2022-12-18T00:38:22.187Z,16.38
2022-12-18T00:42:44.039Z,15.15
2022-12-18T00:46:46.615Z,18.08
2022-12-18T00:50:49.550Z,17.20
2022-12-18T00:54:51.220Z,15.88
2022-12-18T00:58:53.174Z,15.80
2022-12-18T01:02:55.030Z,16.45
2022-12-18T01:06:56.934Z,16.60
2022-12-18T01:10:58.668Z,14.43
2022-12-18T01:15:00.876Z,16.17
2022-12-18T01:19:02.894Z,16.52
2022-12-18T01:23:04.681Z,15.48
2022-12-18T01:27:06.409Z,15.60
2022-12-18T01:31:19.924Z,15.40
2022-12-18T01:35:22.049Z,15.10
2022-12-18T01:39:23.781Z,14.70
2022-12-18T01:43:45.601Z,15.77
2022-12-18T01:48:09.760Z,14.75
2022-12-18T01:52:12.260Z,16.75
2022-12-18T01:56:19.776Z,15.45
2022-12-18T02:00:23.347Z,14.82
2022-12-18T02:04:28.537Z,13.82
2022-12-18T02:08:47.213Z,14.85
2022-12-18T02:13:06.840Z,13.13
2022-12-18T02:17:23.119Z,13.52
2022-12-18T02:21:49.738Z,14.82
2022-12-18T02:26:00.981Z,13.45
2022-12-18T02:30:06.086Z,16.08
2022-12-18T02:34:09.496Z,13.93
2022-12-18T02:38:15.361Z,14.80
2022-12-18T02:42:20.332Z,15.02
2022-12-18T02:46:31.614Z,15.32
2022-12-18T02:50:55.046Z,15.77
2022-12-18T02:55:32.100Z,15.45
2022-12-18T02:59:48.645Z,14.35
2022-12-18T03:04:00.735Z,13.07
2022-12-18T03:08:14.301Z,14.00
2022-12-18T03:12:25.306Z,13.70
2022-12-18T03:16:32.323Z,13.38
2022-12-18T03:20:38.065Z,13.68
2022-12-18T03:24:40.951Z,13.02
2022-12-18T03:28:53.091Z,12.63
2022-12-18T03:33:25.101Z,13.98
2022-12-18T03:37:29.186Z,13.88
2022-12-18T03:41:38.320Z,14.27
2022-12-18T03:46:09.060Z,13.45
2022-12-18T03:50:20.514Z,13.18
2022-12-18T03:54:27.972Z,12.25
2022-12-18T03:58:39.481Z,12.05
2022-12-18T04:02:58.233Z,12.32
2022-12-18T04:07:08.887Z,13.32
2022-12-18T04:11:13.653Z,13.75
2022-12-18T04:15:15.989Z,14.35
2022-12-18T04:19:18.770Z,13.88
2022-12-18T04:23:24.811Z,13.77
2022-12-18T04:27:28.421Z,14.23
2022-12-18T04:31:30.555Z,15.57
2022-12-18T04:35:32.802Z,15.18
2022-12-18T04:39:34.906Z,14.77
2022-12-18T04:43:42.241Z,15.32
2022-12-18T04:47:44.162Z,14.80
2022-12-18T04:51:45.858Z,15.00
2022-12-18T04:55:47.600Z,16.35
2022-12-18T04:59:49.363Z,15.55
2022-12-18T05:03:53.193Z,13.88
2022-12-18T05:07:54.918Z,14.35
2022-12-18T05:11:56.640Z,16.23
2022-12-18T05:15:58.912Z,16.27
2022-12-18T05:20:00.670Z,15.75
2022-12-18T05:24:02.665Z,15.68
2022-12-18T05:28:04.376Z,16.20
2022-12-18T05:32:06.099Z,14.48
2022-12-18T05:36:09.752Z,16.20
2022-12-18T05:40:12.623Z,15.40
2022-12-18T05:44:14.371Z,13.52
2022-12-18T05:48:17.282Z,14.05
2022-12-18T05:52:18.996Z,14.02
2022-12-18T05:56:23.421Z,14.07
2022-12-18T06:00:25.122Z,13.60
2022-12-18T06:04:33.948Z,13.63
2022-12-18T06:08:35.649Z,13.45
2022-12-18T06:12:37.473Z,13.15
2022-12-18T06:16:39.283Z,13.75
2022-12-18T06:20:42.430Z,13.68
2022-12-18T06:24:44.203Z,12.77
2022-12-18T06:28:46.077Z,15.15
2022-12-18T06:32:53.192Z,13.10
2022-12-18T06:36:58.177Z,12.38
2022-12-18T06:40:59.859Z,13.32
2022-12-18T06:45:01.624Z,14.40
2022-12-18T06:49:03.361Z,14.50
2022-12-18T06:53:05.053Z,12.13
2022-12-18T06:57:08.828Z,12.52
2022-12-18T07:01:12.531Z,12.75
2022-12-18T07:05:14.368Z,14.95
2022-12-18T07:09:16.100Z,13.27
2022-12-18T07:13:18.295Z,13.02
2022-12-18T07:17:20.018Z,12.20
2022-12-18T07:21:23.235Z,13.82
2022-12-18T07:25:24.949Z,13.45
2022-12-18T07:29:26.724Z,14.82
2022-12-18T07:33:28.485Z,13.27
2022-12-18T07:37:30.937Z,13.48
2022-12-18T07:41:32.965Z,12.88
2022-12-18T07:45:44.126Z,13.40
2022-12-18T07:49:45.851Z,14.45
2022-12-18T07:53:49.337Z,12.25
2022-12-18T07:57:57.763Z,13.40
2022-12-18T08:02:05.770Z,13.00
2022-12-18T08:06:10.884Z,12.05
2022-12-18T08:10:12.636Z,12.77
2022-12-18T08:14:15.821Z,12.50
2022-12-18T08:18:17.507Z,11.95
2022-12-18T08:22:19.325Z,11.45
2022-12-18T08:26:22.284Z,12.02
2022-12-18T08:30:23.919Z,12.63
2022-12-18T08:34:25.964Z,10.48
2022-12-18T08:38:28.151Z,11.80
2022-12-18T08:42:48.429Z,11.80
2022-12-18T08:46:50.222Z,11.07
2022-12-18T08:50:59.552Z,11.85
2022-12-18T08:55:01.554Z,11.68
2022-12-18T08:59:03.697Z,12.18
2022-12-18T09:03:05.658Z,12.48
2022-12-18T09:07:07.473Z,11.32
2022-12-18T09:11:24.364Z,11.80
2022-12-18T09:15:26.170Z,11.63
2022-12-18T09:19:27.993Z,11.20
2022-12-18T09:23:29.749Z,11.48
2022-12-18T09:27:31.592Z,10.45
2022-12-18T09:31:34.289Z,12.13
2022-12-18T09:35:37.941Z,10.25
2022-12-18T09:39:41.030Z,11.13
2022-12-18T09:43:58.355Z,10.32
2022-12-18T09:48:02.835Z,10.80
2022-12-18T09:52:16.182Z,11.13
2022-12-18T09:56:20.571Z,10.80
2022-12-18T10:00:24.463Z,10.55
2022-12-18T10:04:31.696Z,11.20
2022-12-18T10:12:46.117Z,11.85
2022-12-18T10:17:04.033Z,10.50
2022-12-18T10:21:13.414Z,10.48
2022-12-18T10:25:55.021Z,10.18
2022-12-18T10:29:57.089Z,10.15
2022-12-18T10:33:58.788Z,9.77
2022-12-18T10:38:12.743Z,10.27
2022-12-18T10:42:20.543Z,10.80
2022-12-18T10:46:22.427Z,9.95
2022-12-18T10:51:01.845Z,10.30
2022-12-18T10:54:59.395Z,10.73
2022-12-18T10:59:10.107Z,10.68
2022-12-18T11:03:32.616Z,10.75
2022-12-18T11:07:51.170Z,11.40
2022-12-18T11:11:55.920Z,9.65
2022-12-18T11:15:58.256Z,10.13
2022-12-18T11:20:02.738Z,11.18
2022-12-18T11:24:04.780Z,10.35
2022-12-18T11:28:28.025Z,11.52
2022-12-18T11:32:40.494Z,10.00
2022-12-18T11:36:49.498Z,9.90
2022-12-18T11:40:57.616Z,10.48
2022-12-18T11:45:25.798Z,11.45
2022-12-18T11:49:35.218Z,9.75
2022-12-18T11:53:39.270Z,9.63
2022-12-18T11:57:57.205Z,9.85
2022-12-18T12:02:19.803Z,10.75
2022-12-18T12:06:29.786Z,10.23
2022-12-18T12:10:55.969Z,10.25
2022-12-18T12:14:57.624Z,10.00
2022-12-18T12:19:14.281Z,9.45
2022-12-18T12:23:30.709Z,9.45
2022-12-18T12:27:59.227Z,10.50
2022-12-18T12:32:21.908Z,10.48
2022-12-18T12:36:54.785Z,9.45
2022-12-18T12:41:30.144Z,9.57
2022-12-18T12:45:41.494Z,9.88
2022-12-18T12:49:48.726Z,10.68
2022-12-18T12:53:54.059Z,10.13
2022-12-18T12:57:59.154Z,10.13
2022-12-18T13:02:38.052Z,9.53
2022-12-18T13:06:55.638Z,10.70
2022-12-18T13:11:18.593Z,9.80
2022-12-18T13:15:29.965Z,10.32
2022-12-18T13:19:32.662Z,9.73
2022-12-18T13:23:37.830Z,11.38
2022-12-18T13:27:45.587Z,9.88
2022-12-18T13:31:50.031Z,11.60
2022-12-18T13:35:51.768Z,10.07
2022-12-18T13:39:53.571Z,9.95
2022-12-18T13:44:14.766Z,10.93
2022-12-18T13:48:22.756Z,9.57
2022-12-18T13:52:28.102Z,10.20
2022-12-18T13:56:33.298Z,10.27
2022-12-18T14:00:35.699Z,9.88
2022-12-18T14:04:37.460Z,11.20
2022-12-18T14:08:42.339Z,10.60
2022-12-18T14:13:03.071Z,11.43
2022-12-18T14:17:11.571Z,10.48
2022-12-18T14:21:28.143Z,11.10
2022-12-18T14:25:31.622Z,10.60
2022-12-18T14:29:35.964Z,12.30
2022-12-18T14:33:39.574Z,9.60
2022-12-18T14:37:41.492Z,11.90
2022-12-18T14:41:43.225Z,10.23
2022-12-18T14:45:47.131Z,10.45
2022-12-18T14:49:49.632Z,12.85
2022-12-18T14:54:03.459Z,11.10
2022-12-18T14:58:05.174Z,9.27
2022-12-18T15:02:29.465Z,10.18
2022-12-18T15:06:42.768Z,10.30
2022-12-18T15:10:49.751Z,10.50
2022-12-18T15:14:51.420Z,14.15
2022-12-18T15:18:54.622Z,11.23
2022-12-18T15:22:56.413Z,10.95
2022-12-18T15:26:58.562Z,10.75
2022-12-18T15:31:03.420Z,10.48
2022-12-18T15:35:16.197Z,10.23
2022-12-18T15:39:17.899Z,11.27
2022-12-18T15:43:48.865Z,10.38
2022-12-18T15:47:50.638Z,9.90
2022-12-18T15:51:59.130Z,10.82
2022-12-18T15:56:19.543Z,10.88
2022-12-18T16:00:22.028Z,9.40
2022-12-18T16:04:24.645Z,10.82
2022-12-18T16:08:26.429Z,10.73
2022-12-18T16:12:28.194Z,10.13
2022-12-18T16:16:29.981Z,10.32
2022-12-18T16:20:33.043Z,9.75
2022-12-18T16:24:37.245Z,11.27
2022-12-18T16:28:42.499Z,10.82
2022-12-18T16:32:47.105Z,10.52
2022-12-18T16:36:50.123Z,10.27
2022-12-18T16:41:10.201Z,11.73
2022-12-18T16:45:16.106Z,10.85
2022-12-18T16:49:19.435Z,11.35
2022-12-18T16:53:21.159Z,12.07
2022-12-18T16:57:25.357Z,11.30
2022-12-18T17:01:30.302Z,11.18
2022-12-18T17:05:33.939Z,10.30
2022-12-18T17:09:36.551Z,11.50
2022-12-18T17:13:39.006Z,10.85
2022-12-18T17:17:40.990Z,10.80
2022-12-18T17:21:44.405Z,10.82
2022-12-18T17:25:46.143Z,9.98
2022-12-18T17:29:48.974Z,11.20
2022-12-18T17:33:51.733Z,11.55
2022-12-18T17:37:53.454Z,10.90
2022-12-18T17:41:55.197Z,10.68
2022-12-18T17:45:58.112Z,10.88
2022-12-18T17:50:07.911Z,10.90
2022-12-18T17:54:10.597Z,10.20
2022-12-18T17:58:12.374Z,11.43
2022-12-18T18:02:14.201Z,11.05
2022-12-18T18:06:16.094Z,11.10
2022-12-18T18:10:17.902Z,10.57
2022-12-18T18:14:20.918Z,10.52
2022-12-18T18:18:22.627Z,10.95
2022-12-18T18:22:26.103Z,11.23
2022-12-18T18:26:31.384Z,10.70
2022-12-18T18:30:33.078Z,11.38
2022-12-18T18:34:34.998Z,10.40
2022-12-18T18:38:36.674Z,10.00
2022-12-18T18:42:38.430Z,10.95
2022-12-18T18:46:40.125Z,10.15
2022-12-18T18:50:44.142Z,12.07
2022-12-18T18:55:11.636Z,10.60
2022-12-18T18:59:09.690Z,12.05
2022-12-18T19:03:12.469Z,12.00
2022-12-18T19:07:25.411Z,11.40
2022-12-18T19:11:51.306Z,11.85
2022-12-18T19:15:56.080Z,10.52
2022-12-18T19:19:58.058Z,10.77
2022-12-18T19:24:00.171Z,10.85
2022-12-18T19:28:01.954Z,11.82
2022-12-18T19:32:06.625Z,11.05
2022-12-18T19:36:25.325Z,12.15
2022-12-18T19:40:27.352Z,11.23
2022-12-18T19:44:30.400Z,11.65
2022-12-18T19:48:35.641Z,11.07
2022-12-18T19:52:37.392Z,11.95
2022-12-18T19:56:39.093Z,11.90
2022-12-18T20:00:40.785Z,13.93
2022-12-18T20:04:42.514Z,11.45
2022-12-18T20:08:44.471Z,11.15
2022-12-18T20:12:46.272Z,12.35
2022-12-18T20:16:48.499Z,11.40
2022-12-18T20:20:50.823Z,11.48
2022-12-18T20:24:53.776Z,12.63
2022-12-18T20:28:56.651Z,11.13
2022-12-18T20:32:58.385Z,11.75
2022-12-18T20:37:00.099Z,11.40
2022-12-18T20:41:04.925Z,11.50
2022-12-18T20:45:07.338Z,11.30
2022-12-18T20:49:09.752Z,11.48
2022-12-18T20:53:11.470Z,11.40
2022-12-18T20:57:13.252Z,12.05
2022-12-18T21:01:18.407Z,13.10
2022-12-18T21:05:20.361Z,13.18
2022-12-18T21:09:22.297Z,11.95
2022-12-18T21:13:23.971Z,12.65
2022-12-18T21:17:26.827Z,12.27
2022-12-18T21:21:30.085Z,12.35
2022-12-18T21:25:39.414Z,11.32
2022-12-18T21:29:41.224Z,12.07
2022-12-18T21:33:43.024Z,12.45
2022-12-18T21:37:44.721Z,13.45
2022-12-18T21:42:05.413Z,12.00
2022-12-18T21:46:07.180Z,12.18
2022-12-18T21:50:09.268Z,12.50
2022-12-18T21:54:11.568Z,12.55
2022-12-18T21:58:13.294Z,12.68
2022-12-18T22:02:18.623Z,12.27
2022-12-18T22:06:20.591Z,13.65
2022-12-18T22:10:22.320Z,12.82
2022-12-18T22:14:24.389Z,12.20
2022-12-18T22:18:26.094Z,11.30
2022-12-18T22:22:27.867Z,13.30
2022-12-18T22:26:36.414Z,12.82
2022-12-18T22:30:41.210Z,12.52
2022-12-18T22:34:43.268Z,12.50
2022-12-18T22:38:47.146Z,11.70
2022-12-18T22:42:48.881Z,13.10
2022-12-18T22:47:05.542Z,12.63
2022-12-18T22:51:16.206Z,12.13
2022-12-18T22:55:18.289Z,12.55
2022-12-18T22:59:23.331Z,12.63
2022-12-18T23:03:25.037Z,12.43
2022-12-18T23:07:26.833Z,11.45
2022-12-18T23:11:28.549Z,12.13
2022-12-18T23:15:30.372Z,12.70
2022-12-18T23:19:32.081Z,12.60
2022-12-18T23:23:35.229Z,12.93
2022-12-18T23:27:36.996Z,13.23
2022-12-18T23:31:39.581Z,10.82
2022-12-18T23:35:41.393Z,11.77
2022-12-18T23:39:43.102Z,12.15
2022-12-18T23:43:45.467Z,12.07
2022-12-18T23:47:51.038Z,11.85
2022-12-18T23:51:54.384Z,10.27
2022-12-18T23:55:56.204Z,10.57
2022-12-18T23:59:58.895Z,12.00
